Time;durP1;ratioP1;P1;durP2;ratioP2;P2;SDS_P1;SDS_P2;PMS_P1;PMS_P2;Temp;Humidity;BMP_temperature;BMP_pressure;BME280_temperature;BME280_humidity;BME280_pressure;Samples;Min_cycle;Max_cycle;Signal;HPM_P1;HPM_P2
2023/09/27 00:01:57;;;;;;;22.58;18.45;;;;;;;;;;5015082;28;20030;-74
2023/09/27 00:04:23;;;;;;;26.55;19.58;;;;;;;;;;5015117;28;20033;-74
2023/09/27 00:06:50;;;;;;;24.65;18.77;;;;;;;;;;5015097;28;20037;-74
2023/09/27 00:09:16;;;;;;;26.05;18.67;;;;;;;;;;5015273;28;20037;-74
2023/09/27 00:11:42;;;;;;;23.10;19.55;;;;;;;;;;5015011;28;20022;-74
2023/09/27 00:14:08;;;;;;;21.92;17.48;;;;;;;;;;5015077;28;20088;-74
2023/09/27 00:16:35;;;;;;;24.77;19.35;;;;;;;;;;5014942;28;20080;-74
2023/09/27 00:19:03;;;;;;;22.65;18.27;;;;;;;;;;5015262;28;20026;-74
2023/09/27 00:21:29;;;;;;;21.85;17.98;;;;;;;;;;5015232;28;20040;-74
2023/09/27 00:23:55;;;;;;;26.38;19.83;;;;;;;;;;5014347;28;20033;-74
2023/09/27 00:26:21;;;;;;;25.13;19.35;;;;;;;;;;5014561;28;20087;-74
2023/09/27 00:28:47;;;;;;;22.83;18.25;;;;;;;;;;5013986;28;20453;-74
2023/09/27 00:31:14;;;;;;;23.48;18.80;;;;;;;;;;5013467;28;20029;-74
2023/09/27 00:33:41;;;;;;;25.02;19.20;;;;;;;;;;5014342;28;20026;-73
2023/09/27 00:36:07;;;;;;;25.00;19.48;;;;;;;;;;5014725;28;20021;-74
2023/09/27 00:38:33;;;;;;;22.13;18.23;;;;;;;;;;5014415;28;20433;-74
2023/09/27 00:40:59;;;;;;;24.85;19.35;;;;;;;;;;5014368;28;20026;-74
2023/09/27 00:43:30;;;;;;;24.20;19.70;;;;;;;;;;5014260;28;20041;-74
2023/09/27 00:46:03;;;;;;;23.90;18.10;;;;;;;;;;5014360;28;20044;-74
2023/09/27 00:48:30;;;;;;;25.38;18.25;;;;;;;;;;5014184;28;20026;-74
2023/09/27 00:50:57;;;;;;;22.05;16.88;;;;;;;;;;5014313;28;20030;-74
2023/09/27 00:53:24;;;;;;;24.13;18.10;;;;;;;;;;5014390;28;20026;-74
2023/09/27 00:55:50;;;;;;;22.77;18.63;;;;;;;;;;5014296;28;20022;-74
2023/09/27 00:58:19;;;;;;;24.02;17.50;;;;;;;;;;5014178;28;20026;-74
2023/09/27 01:00:49;;;;;;;25.63;18.92;;;;;;;;;;5014165;28;20029;-74
2023/09/27 01:03:15;;;;;;;21.30;17.95;;;;;;;;;;4996478;28;20057;-74
2023/09/27 01:05:44;;;;;;;26.15;19.25;;;;;;;;;;5014037;28;20053;-74
2023/09/27 01:08:10;;;;;;;26.17;18.27;;;;;;;;;;5014020;28;20421;-74
2023/09/27 01:10:36;;;;;;;22.80;19.15;;;;;;;;;;5013637;28;20460;-74
2023/09/27 01:13:03;;;;;;;24.27;18.52;;;;;;;;;;5013538;28;20036;-74
2023/09/27 01:15:29;;;;;;;24.85;17.92;;;;;;;;;;5014227;28;20030;-75
2023/09/27 01:17:59;;;;;;;20.67;17.20;;;;;;;;;;5013809;28;20030;-74
2023/09/27 01:20:26;;;;;;;25.65;18.13;;;;;;;;;;5013828;28;20028;-74
2023/09/27 01:22:57;;;;;;;21.70;17.92;;;;;;;;;;5013702;28;20088;-74
2023/09/27 01:25:25;;;;;;;23.05;17.15;;;;;;;;;;5012237;28;20384;-74
2023/09/27 01:27:51;;;;;;;25.80;18.20;;;;;;;;;;5014013;28;20033;-74
2023/09/27 01:30:17;;;;;;;22.83;18.20;;;;;;;;;;5013633;28;20014;-74
2023/09/27 01:32:43;;;;;;;21.25;16.85;;;;;;;;;;5013566;28;20392;-74
2023/09/27 01:35:09;;;;;;;22.15;16.92;;;;;;;;;;5013575;28;20771;-74
2023/09/27 01:37:36;;;;;;;23.65;17.63;;;;;;;;;;5013748;28;20403;-74
2023/09/27 01:40:06;;;;;;;22.50;17.75;;;;;;;;;;5013628;28;20124;-74
2023/09/27 01:42:32;;;;;;;20.63;17.08;;;;;;;;;;5013436;28;20022;-74
2023/09/27 01:44:59;;;;;;;22.83;16.55;;;;;;;;;;5013357;28;20388;-74
2023/09/27 01:47:25;;;;;;;22.25;16.50;;;;;;;;;;5013450;28;20022;-74
2023/09/27 01:49:51;;;;;;;21.40;15.57;;;;;;;;;;5013270;28;20105;-74
2023/09/27 01:52:17;;;;;;;20.75;16.55;;;;;;;;;;5013313;28;20026;-74
2023/09/27 01:54:43;;;;;;;21.13;16.85;;;;;;;;;;5013427;28;20022;-74
2023/09/27 01:57:09;;;;;;;22.83;17.25;;;;;;;;;;5013255;28;20034;-74
2023/09/27 01:59:35;;;;;;;24.88;17.58;;;;;;;;;;5013292;28;20697;-74
2023/09/27 02:02:01;;;;;;;23.05;16.73;;;;;;;;;;5012916;28;20026;-74
2023/09/27 02:04:27;;;;;;;24.55;17.33;;;;;;;;;;5012925;28;20054;-74
2023/09/27 02:06:53;;;;;;;23.92;18.35;;;;;;;;;;5012939;28;20030;-74
2023/09/27 02:09:19;;;;;;;21.70;16.48;;;;;;;;;;5013225;28;20033;-74
2023/09/27 02:11:45;;;;;;;25.98;18.23;;;;;;;;;;5012803;28;20091;-74
2023/09/27 02:14:11;;;;;;;23.65;17.50;;;;;;;;;;5012955;28;20101;-74
2023/09/27 02:16:41;;;;;;;22.20;18.33;;;;;;;;;;5012933;28;20034;-74
2023/09/27 02:19:07;;;;;;;23.25;18.75;;;;;;;;;;5013221;28;20469;-74
2023/09/27 02:21:33;;;;;;;22.05;17.77;;;;;;;;;;5012779;28;20038;-74
2023/09/27 02:23:59;;;;;;;22.63;17.40;;;;;;;;;;5011080;28;20036;-74
2023/09/27 02:26:25;;;;;;;25.00;17.83;;;;;;;;;;5012680;28;20026;-74
2023/09/27 02:28:51;;;;;;;24.25;19.00;;;;;;;;;;5012604;28;20106;-74
2023/09/27 02:31:17;;;;;;;25.25;18.95;;;;;;;;;;5012551;28;20037;-74
2023/09/27 02:33:43;;;;;;;27.80;19.85;;;;;;;;;;5012541;28;20474;-74
2023/09/27 02:36:16;;;;;;;30.75;21.13;;;;;;;;;;5012603;28;20105;-74
2023/09/27 02:38:42;;;;;;;28.73;20.90;;;;;;;;;;5012517;28;20034;-74
2023/09/27 02:41:08;;;;;;;28.35;21.45;;;;;;;;;;5012578;28;20076;-74
2023/09/27 02:43:34;;;;;;;30.95;21.33;;;;;;;;;;5012490;28;20499;-74
2023/09/27 02:46:00;;;;;;;29.73;20.65;;;;;;;;;;5012694;28;20030;-74
2023/09/27 02:48:26;;;;;;;34.40;23.00;;;;;;;;;;5012438;28;20029;-74
2023/09/27 02:50:52;;;;;;;28.65;22.25;;;;;;;;;;5012910;28;20026;-74
2023/09/27 02:53:19;;;;;;;28.98;22.38;;;;;;;;;;5012429;28;20030;-74
2023/09/27 02:55:46;;;;;;;31.13;22.30;;;;;;;;;;5012310;28;20096;-74
2023/09/27 02:58:12;;;;;;;28.40;21.77;;;;;;;;;;5012546;28;20026;-74
2023/09/27 03:00:42;;;;;;;30.45;21.60;;;;;;;;;;5012428;28;20108;-74
2023/09/27 03:03:13;;;;;;;28.02;21.65;;;;;;;;;;5012186;28;20389;-74
2023/09/27 03:05:39;;;;;;;34.20;22.95;;;;;;;;;;5012266;28;20026;-74
2023/09/27 03:08:05;;;;;;;28.23;20.50;;;;;;;;;;5012267;28;20037;-74
2023/09/27 03:10:31;;;;;;;31.95;22.65;;;;;;;;;;5012267;28;20022;-74
2023/09/27 03:12:58;;;;;;;31.90;21.83;;;;;;;;;;4994864;28;20118;-74
2023/09/27 03:15:25;;;;;;;32.65;22.48;;;;;;;;;;5012461;28;20049;-74
2023/09/27 03:17:51;;;;;;;33.75;23.17;;;;;;;;;;5012234;28;20030;-74
2023/09/27 03:20:17;;;;;;;35.33;23.02;;;;;;;;;;5012358;28;20107;-74
2023/09/27 03:22:43;;;;;;;32.58;23.73;;;;;;;;;;5012278;28;20044;-74
2023/09/27 03:25:10;;;;;;;32.08;22.75;;;;;;;;;;5011702;28;20389;-74
2023/09/27 03:27:39;;;;;;;34.10;22.48;;;;;;;;;;5012158;28;20026;-74
2023/09/27 03:30:08;;;;;;;34.97;23.20;;;;;;;;;;5012115;28;20018;-74
2023/09/27 03:32:35;;;;;;;35.03;24.23;;;;;;;;;;5012073;28;20025;-74
2023/09/27 03:35:01;;;;;;;31.25;23.48;;;;;;;;;;5013597;28;20453;-74
2023/09/27 03:37:27;;;;;;;39.88;26.15;;;;;;;;;;5015463;28;20073;-74
2023/09/27 03:39:55;;;;;;;34.63;24.55;;;;;;;;;;5015413;28;20026;-74
2023/09/27 03:42:22;;;;;;;33.42;23.48;;;;;;;;;;5015723;28;20520;-74
2023/09/27 03:44:51;;;;;;;31.08;21.42;;;;;;;;;;5015641;28;20054;-74
2023/09/27 03:47:17;;;;;;;35.33;24.58;;;;;;;;;;5015400;28;20057;-74
2023/09/27 03:49:43;;;;;;;40.08;26.55;;;;;;;;;;5015504;28;20036;-74
2023/09/27 03:52:09;;;;;;;37.67;26.05;;;;;;;;;;5015234;28;20030;-74
2023/09/27 03:54:35;;;;;;;42.30;26.58;;;;;;;;;;5015173;28;20026;-74
2023/09/27 03:57:01;;;;;;;34.78;24.48;;;;;;;;;;5015162;28;20037;-74
2023/09/27 03:59:28;;;;;;;38.50;24.90;;;;;;;;;;5015069;28;20026;-74
2023/09/27 04:01:55;;;;;;;35.88;23.85;;;;;;;;;;5015227;28;20052;-74
2023/09/27 04:04:21;;;;;;;34.10;24.13;;;;;;;;;;5014971;28;20018;-74
2023/09/27 04:06:49;;;;;;;36.05;24.85;;;;;;;;;;5015172;28;20478;-74
2023/09/27 04:09:15;;;;;;;33.95;24.33;;;;;;;;;;5015188;28;20028;-74
2023/09/27 04:11:41;;;;;;;39.58;24.50;;;;;;;;;;5014934;28;20026;-74
2023/09/27 04:14:08;;;;;;;37.47;25.75;;;;;;;;;;5014830;28;20030;-74
2023/09/27 04:16:34;;;;;;;39.45;25.75;;;;;;;;;;5014774;28;20030;-74
2023/09/27 04:19:00;;;;;;;31.75;23.50;;;;;;;;;;5014999;28;20034;-74
2023/09/27 04:21:26;;;;;;;34.03;24.35;;;;;;;;;;5014778;28;20040;-74
2023/09/27 04:23:56;;;;;;;39.33;24.58;;;;;;;;;;5014556;28;20483;-74
2023/09/27 04:26:23;;;;;;;36.75;24.48;;;;;;;;;;5014089;28;20061;-74
2023/09/27 04:28:49;;;;;;;34.78;24.40;;;;;;;;;;5014779;28;20103;-74
2023/09/27 04:31:15;;;;;;;36.17;25.17;;;;;;;;;;5014362;28;20032;-73
2023/09/27 04:33:44;;;;;;;39.58;25.90;;;;;;;;;;5014322;28;20034;-74
2023/09/27 04:36:15;;;;;;;33.08;24.02;;;;;;;;;;5014594;28;20030;-74
2023/09/27 04:38:41;;;;;;;36.85;25.67;;;;;;;;;;5014678;28;20041;-74
2023/09/27 04:41:08;;;;;;;36.83;23.63;;;;;;;;;;5014259;28;20026;-74
2023/09/27 04:43:34;;;;;;;33.05;22.73;;;;;;;;;;5014464;28;20030;-74
2023/09/27 04:46:00;;;;;;;33.33;23.38;;;;;;;;;;5014139;28;20107;-74
2023/09/27 04:48:26;;;;;;;31.50;22.77;;;;;;;;;;5014138;28;20029;-74
2023/09/27 04:50:52;;;;;;;37.40;23.45;;;;;;;;;;5014138;28;20052;-74
2023/09/27 04:53:18;;;;;;;37.00;25.77;;;;;;;;;;5014086;28;20133;-74
2023/09/27 04:55:44;;;;;;;30.77;22.48;;;;;;;;;;5014299;28;20025;-74
2023/09/27 04:58:10;;;;;;;33.92;24.23;;;;;;;;;;5014015;28;20072;-74
2023/09/27 05:00:36;;;;;;;36.50;24.63;;;;;;;;;;5014023;28;20029;-74
2023/09/27 05:03:02;;;;;;;44.08;27.90;;;;;;;;;;5013771;28;20823;-73
2023/09/27 05:05:29;;;;;;;36.50;24.42;;;;;;;;;;5013899;28;20041;-74
2023/09/27 05:07:55;;;;;;;39.97;25.42;;;;;;;;;;5013883;28;20061;-74
2023/09/27 05:10:21;;;;;;;45.40;28.08;;;;;;;;;;5013760;28;20091;-74
2023/09/27 05:12:47;;;;;;;46.55;28.10;;;;;;;;;;4996147;28;20117;-74
2023/09/27 05:15:13;;;;;;;40.92;26.90;;;;;;;;;;5013612;28;20415;-74
2023/09/27 05:17:39;;;;;;;45.33;27.70;;;;;;;;;;5013486;28;20038;-74
2023/09/27 05:20:12;;;;;;;42.53;27.42;;;;;;;;;;5013421;28;20022;-74
2023/09/27 05:22:38;;;;;;;42.00;27.73;;;;;;;;;;5013508;28;20055;-74
2023/09/27 05:25:06;;;;;;;35.35;25.48;;;;;;;;;;5012940;28;20121;-74
2023/09/27 05:27:32;;;;;;;35.92;25.42;;;;;;;;;;5013373;28;20033;-73
2023/09/27 05:29:58;;;;;;;36.70;24.73;;;;;;;;;;5013300;28;20025;-73
2023/09/27 05:32:24;;;;;;;33.42;24.45;;;;;;;;;;5013244;28;20025;-73
2023/09/27 05:34:50;;;;;;;43.17;26.63;;;;;;;;;;5013391;28;20022;-73
2023/09/27 05:37:17;;;;;;;38.20;26.70;;;;;;;;;;5013306;28;20033;-74
2023/09/27 05:39:43;;;;;;;45.78;29.63;;;;;;;;;;5013320;28;20024;-73
2023/09/27 05:42:09;;;;;;;42.92;28.25;;;;;;;;;;5012969;28;20038;-74
2023/09/27 05:44:35;;;;;;;46.67;30.85;;;;;;;;;;5013425;28;20088;-74
2023/09/27 05:47:01;;;;;;;44.60;29.98;;;;;;;;;;5013080;28;20030;-74
2023/09/27 05:49:27;;;;;;;80.85;31.90;;;;;;;;;;5013142;28;20022;-74
2023/09/27 05:51:53;;;;;;;64.88;31.83;;;;;;;;;;5013117;28;20095;-74
2023/09/27 05:54:19;;;;;;;49.67;30.50;;;;;;;;;;5013003;28;20063;-74
2023/09/27 05:56:51;;;;;;;45.47;28.35;;;;;;;;;;5012877;28;20030;-74
2023/09/27 05:59:17;;;;;;;44.20;29.42;;;;;;;;;;5008795;28;20106;-74
2023/09/27 06:01:44;;;;;;;44.38;29.33;;;;;;;;;;4993317;28;20018;-74
2023/09/27 06:04:10;;;;;;;46.10;29.45;;;;;;;;;;4993405;28;20057;-74
2023/09/27 06:06:37;;;;;;;48.17;29.40;;;;;;;;;;4993244;28;20382;-74
2023/09/27 06:09:09;;;;;;;43.47;29.27;;;;;;;;;;4993278;28;20054;-74
2023/09/27 06:11:35;;;;;;;47.05;29.63;;;;;;;;;;4993434;28;20105;-74
2023/09/27 06:14:01;;;;;;;48.00;29.92;;;;;;;;;;4993273;28;20030;-74
2023/09/27 06:16:28;;;;;;;44.28;29.85;;;;;;;;;;4993168;28;20520;-75
2023/09/27 06:18:55;;;;;;;56.63;33.53;;;;;;;;;;4993137;28;20014;-74
2023/09/27 06:21:21;;;;;;;54.17;32.42;;;;;;;;;;4993356;28;20065;-74
2023/09/27 06:23:47;;;;;;;56.58;33.30;;;;;;;;;;4993044;28;20074;-75
2023/09/27 06:26:14;;;;;;;56.38;35.33;;;;;;;;;;4992071;28;20458;-75
2023/09/27 06:28:40;;;;;;;49.42;32.40;;;;;;;;;;4993395;28;20026;-74
2023/09/27 06:31:06;;;;;;;54.60;33.72;;;;;;;;;;4993100;28;20062;-74
2023/09/27 06:33:46;;;;;;;52.65;31.52;;;;;;;;;;4992932;28;20038;-74
2023/09/27 06:36:15;;;;;;;48.75;32.42;;;;;;;;;;4993131;28;20025;-75
2023/09/27 06:38:41;;;;;;;48.10;33.35;;;;;;;;;;4993170;28;20417;-75
2023/09/27 06:41:08;;;;;;;50.45;32.08;;;;;;;;;;4992868;28;20035;-75
2023/09/27 06:43:34;;;;;;;44.15;31.38;;;;;;;;;;4993070;28;20037;-75
2023/09/27 06:46:01;;;;;;;46.60;31.20;;;;;;;;;;4993093;28;20469;-75
2023/09/27 06:48:27;;;;;;;41.50;30.15;;;;;;;;;;4992801;28;20015;-75
2023/09/27 06:50:54;;;;;;;42.50;29.98;;;;;;;;;;4992770;28;20073;-75
2023/09/27 06:53:20;;;;;;;47.30;31.38;;;;;;;;;;4992806;28;20113;-75
2023/09/27 06:55:49;;;;;;;44.72;31.30;;;;;;;;;;4993090;28;20073;-75
2023/09/27 06:58:22;;;;;;;46.40;29.65;;;;;;;;;;4992827;28;20061;-75
2023/09/27 07:00:48;;;;;;;41.78;29.67;;;;;;;;;;4993126;28;20026;-75
2023/09/27 07:03:15;;;;;;;41.05;29.05;;;;;;;;;;4992712;28;20114;-75
2023/09/27 07:05:41;;;;;;;36.35;26.98;;;;;;;;;;4992907;28;20113;-75
2023/09/27 07:08:07;;;;;;;39.58;27.33;;;;;;;;;;4992961;28;20023;-75
2023/09/27 07:10:33;;;;;;;40.55;28.27;;;;;;;;;;4994716;28;20089;-75
2023/09/27 07:12:59;;;;;;;39.00;27.35;;;;;;;;;;4996558;28;20023;-75
2023/09/27 07:15:25;;;;;;;36.40;26.30;;;;;;;;;;4996688;28;20023;-75
2023/09/27 07:17:52;;;;;;;33.42;25.98;;;;;;;;;;4996236;28;20037;-75
2023/09/27 07:20:24;;;;;;;36.60;24.92;;;;;;;;;;4996583;28;20026;-75
2023/09/27 07:22:50;;;;;;;30.65;23.42;;;;;;;;;;4996419;28;20041;-75
2023/09/27 07:25:18;;;;;;;33.13;23.50;;;;;;;;;;4995783;28;20073;-75
2023/09/27 07:27:46;;;;;;;31.27;22.05;;;;;;;;;;4996325;28;20105;-75
2023/09/27 07:30:12;;;;;;;33.75;22.60;;;;;;;;;;4996341;28;20022;-75
2023/09/27 07:32:41;;;;;;;32.83;22.58;;;;;;;;;;4996047;28;20026;-75
2023/09/27 07:35:10;;;;;;;27.90;21.73;;;;;;;;;;5013489;28;20460;-75
2023/09/27 07:37:37;;;;;;;29.25;22.38;;;;;;;;;;5015693;28;20476;-75
2023/09/27 07:40:11;;;;;;;30.80;23.33;;;;;;;;;;5015491;28;20026;-75
2023/09/27 07:42:48;;;;;;;30.27;21.65;;;;;;;;;;5015807;28;20559;-75
2023/09/27 07:45:26;;;;;;;30.10;22.40;;;;;;;;;;5015721;28;20100;-75
2023/09/27 07:47:53;;;;;;;28.80;20.25;;;;;;;;;;5015747;28;20014;-75
2023/09/27 07:50:31;;;;;;;26.08;20.05;;;;;;;;;;5015272;28;20053;-75
2023/09/27 07:52:57;;;;;;;27.13;20.33;;;;;;;;;;5015541;28;20167;-75
2023/09/27 07:55:23;;;;;;;25.15;18.30;;;;;;;;;;5015326;28;20412;-75
2023/09/27 07:57:52;;;;;;;25.85;19.85;;;;;;;;;;5015108;28;20026;-75
2023/09/27 08:00:19;;;;;;;28.70;19.45;;;;;;;;;;5015408;28;20049;-75
2023/09/27 08:02:50;;;;;;;28.13;18.63;;;;;;;;;;5015053;28;20148;-75
2023/09/27 08:05:17;;;;;;;27.13;18.58;;;;;;;;;;5015249;28;20025;-75
2023/09/27 08:07:46;;;;;;;25.88;18.83;;;;;;;;;;5015024;28;20025;-76
2023/09/27 08:10:13;;;;;;;24.65;18.23;;;;;;;;;;5015224;28;20028;-75
2023/09/27 08:12:39;;;;;;;22.55;18.25;;;;;;;;;;5014856;28;20496;-75
2023/09/27 08:15:05;;;;;;;26.02;18.92;;;;;;;;;;5015145;28;20099;-75
2023/09/27 08:17:32;;;;;;;25.77;18.52;;;;;;;;;;5014825;28;20025;-75
2023/09/27 08:19:58;;;;;;;26.00;18.75;;;;;;;;;;5014574;28;20105;-75
2023/09/27 08:22:24;;;;;;;21.95;16.60;;;;;;;;;;5014414;28;20030;-76
2023/09/27 08:24:50;;;;;;;25.40;18.55;;;;;;;;;;5013418;28;20125;-75
2023/09/27 08:27:19;;;;;;;25.73;18.85;;;;;;;;;;5014638;28;20113;-76
2023/09/27 08:29:45;;;;;;;24.88;17.80;;;;;;;;;;5014860;28;20026;-75
2023/09/27 08:32:12;;;;;;;27.67;19.20;;;;;;;;;;5014486;28;20038;-75
2023/09/27 08:34:39;;;;;;;22.83;18.65;;;;;;;;;;5014809;28;20026;-75
2023/09/27 08:37:05;;;;;;;26.55;18.92;;;;;;;;;;5014452;28;20034;-75
2023/09/27 08:39:31;;;;;;;22.85;18.83;;;;;;;;;;5014517;28;20026;-75
2023/09/27 08:42:01;;;;;;;26.83;20.33;;;;;;;;;;5014502;28;20030;-76
2023/09/27 08:44:27;;;;;;;25.63;19.73;;;;;;;;;;5014295;28;20033;-75
2023/09/27 08:46:55;;;;;;;27.52;20.30;;;;;;;;;;5014533;28;20468;-76
2023/09/27 08:49:21;;;;;;;24.83;19.35;;;;;;;;;;5014224;28;20037;-76
2023/09/27 08:51:47;;;;;;;23.88;18.98;;;;;;;;;;5014217;28;20033;-76
2023/09/27 08:54:17;;;;;;;25.95;20.50;;;;;;;;;;5014085;28;20060;-76
2023/09/27 08:56:47;;;;;;;25.88;20.05;;;;;;;;;;5014342;28;20022;-75
2023/09/27 08:59:13;;;;;;;25.38;19.08;;;;;;;;;;5014032;28;20025;-76
2023/09/27 09:01:42;;;;;;;27.10;19.85;;;;;;;;;;5014005;28;20346;-76
2023/09/27 09:04:08;;;;;;;22.33;18.80;;;;;;;;;;5013846;28;20065;-76
2023/09/27 09:06:35;;;;;;;27.15;19.23;;;;;;;;;;5013855;28;20497;-75
2023/09/27 09:09:10;;;;;;;24.30;18.63;;;;;;;;;;5014044;28;20057;-76
2023/09/27 09:11:38;;;;;;;23.50;17.60;;;;;;;;;;5014172;28;20018;-75
2023/09/27 09:14:04;;;;;;;23.75;18.65;;;;;;;;;;5013992;28;20017;-76
2023/09/27 09:16:39;;;;;;;28.25;19.33;;;;;;;;;;5013788;28;20053;-76
2023/09/27 09:19:25;;;;;;;25.15;19.63;;;;;;;;;;5013715;28;20026;-75
2023/09/27 09:21:55;;;;;;;25.52;19.92;;;;;;;;;;5013916;28;20349;-76
2023/09/27 09:24:21;;;;;;;24.08;19.58;;;;;;;;;;5012559;28;20026;-76
2023/09/27 09:26:49;;;;;;;26.45;20.38;;;;;;;;;;5013366;28;20400;-76
2023/09/27 09:29:18;;;;;;;25.38;19.27;;;;;;;;;;5013720;28;20022;-76
2023/09/27 09:31:50;;;;;;;22.83;17.98;;;;;;;;;;5013343;28;20025;-75
2023/09/27 09:34:16;;;;;;;26.50;19.20;;;;;;;;;;5013449;28;20022;-75
2023/09/27 09:36:43;;;;;;;23.27;18.23;;;;;;;;;;5013380;28;20028;-75
2023/09/27 09:39:19;;;;;;;25.33;18.15;;;;;;;;;;5013634;28;20029;-76
2023/09/27 09:41:45;;;;;;;22.08;17.52;;;;;;;;;;5013627;28;20022;-76
2023/09/27 09:44:18;;;;;;;24.35;17.75;;;;;;;;;;5013168;28;20038;-76
2023/09/27 09:46:44;;;;;;;22.40;17.58;;;;;;;;;;5013210;28;20046;-76
2023/09/27 09:49:10;;;;;;;21.17;17.42;;;;;;;;;;5013450;28;20445;-76
2023/09/27 09:51:39;;;;;;;25.10;16.35;;;;;;;;;;5013151;28;20049;-76
2023/09/27 09:54:10;;;;;;;24.50;17.45;;;;;;;;;;5013283;28;20036;-76
2023/09/27 09:56:38;;;;;;;22.98;17.02;;;;;;;;;;5013353;28;20383;-75
2023/09/27 09:59:07;;;;;;;23.55;18.20;;;;;;;;;;5013027;28;20026;-75
2023/09/27 10:01:39;;;;;;;24.65;17.52;;;;;;;;;;5013286;28;20022;-76
2023/09/27 10:04:05;;;;;;;21.60;17.13;;;;;;;;;;5012882;28;20026;-75
2023/09/27 10:06:32;;;;;;;26.13;18.50;;;;;;;;;;5012830;28;20112;-76
2023/09/27 10:09:01;;;;;;;21.65;18.40;;;;;;;;;;5012815;28;20362;-76
2023/09/27 10:11:27;;;;;;;25.02;18.60;;;;;;;;;;5013034;28;20433;-75
2023/09/27 10:13:54;;;;;;;21.48;18.17;;;;;;;;;;5012827;28;20493;-76
2023/09/27 10:16:23;;;;;;;24.15;17.15;;;;;;;;;;5012804;28;20105;-76
2023/09/27 10:18:49;;;;;;;22.45;16.60;;;;;;;;;;5012979;28;20029;-76
2023/09/27 10:21:15;;;;;;;22.52;14.85;;;;;;;;;;4995313;28;20022;-76
2023/09/27 10:23:45;;;;;;;22.73;15.05;;;;;;;;;;5012903;28;20026;-76
2023/09/27 10:26:28;;;;;;;21.63;15.55;;;;;;;;;;5012104;28;20084;-76
2023/09/27 10:31:30;;;;;;;22.67;16.50;;;;;;;;;;5012906;28;20438;-76
2023/09/27 10:33:56;;;;;;;28.42;17.65;;;;;;;;;;5012577;28;20026;-75
2023/09/27 10:36:22;;;;;;;21.90;16.85;;;;;;;;;;5012525;28;20069;-75
2023/09/27 10:38:51;;;;;;;20.77;16.50;;;;;;;;;;5012396;28;20557;-75
2023/09/27 10:41:32;;;;;;;21.65;17.10;;;;;;;;;;5012380;28;20101;-75
2023/09/27 10:44:02;;;;;;;20.65;16.30;;;;;;;;;;5014115;28;20026;-76
2023/09/27 10:46:28;;;;;;;23.80;16.48;;;;;;;;;;5016572;28;20025;-76
2023/09/27 10:48:55;;;;;;;20.88;14.98;;;;;;;;;;5016454;28;20028;-76
2023/09/27 10:51:25;;;;;;;21.42;14.70;;;;;;;;;;5016483;28;20030;-75
2023/09/27 10:53:51;;;;;;;19.85;14.20;;;;;;;;;;5016473;28;20032;-76
2023/09/27 10:56:18;;;;;;;21.88;13.90;;;;;;;;;;5016242;28;20117;-76
2023/09/27 10:58:49;;;;;;;16.38;12.98;;;;;;;;;;5016251;28;20076;-76
2023/09/27 11:01:24;;;;;;;17.45;12.40;;;;;;;;;;5016577;28;20014;-76
2023/09/27 11:04:00;;;;;;;17.17;12.45;;;;;;;;;;5016168;28;20044;-76
2023/09/27 11:06:27;;;;;;;18.98;13.80;;;;;;;;;;5016211;28;20050;-76
2023/09/27 11:09:03;;;;;;;18.50;13.63;;;;;;;;;;5016375;28;20032;-76
2023/09/27 11:11:29;;;;;;;17.05;13.48;;;;;;;;;;5016117;28;20084;-76
2023/09/27 11:13:55;;;;;;;21.55;13.90;;;;;;;;;;5015989;28;20029;-76
2023/09/27 11:16:21;;;;;;;17.85;13.60;;;;;;;;;;5015881;28;20092;-76
2023/09/27 11:18:49;;;;;;;16.83;13.77;;;;;;;;;;5015964;28;20026;-76
2023/09/27 11:21:16;;;;;;;23.88;15.07;;;;;;;;;;5016181;28;20520;-76
2023/09/27 11:24:12;;;;;;;18.63;14.75;;;;;;;;;;5015764;28;20038;-76
2023/09/27 11:26:43;;;;;;;19.45;15.32;;;;;;;;;;4983756;28;20046;-76
2023/09/27 11:29:09;;;;;;;17.55;13.85;;;;;;;;;;4996569;28;20034;-76
2023/09/27 11:31:37;;;;;;;20.38;14.70;;;;;;;;;;4996114;28;20044;-75
2023/09/27 11:34:12;;;;;;;22.17;13.55;;;;;;;;;;4996045;28;20041;-76
2023/09/27 11:36:42;;;;;;;22.42;12.90;;;;;;;;;;4996014;28;20041;-76
2023/09/27 11:39:08;;;;;;;18.98;13.48;;;;;;;;;;4996029;28;20022;-76
2023/09/27 11:41:34;;;;;;;21.83;14.82;;;;;;;;;;4994657;28;20088;-76
2023/09/27 11:44:00;;;;;;;22.38;15.23;;;;;;;;;;4995746;28;20461;-76
2023/09/27 11:46:27;;;;;;;24.63;15.05;;;;;;;;;;4995797;28;20037;-76
2023/09/27 11:48:53;;;;;;;21.27;14.80;;;;;;;;;;4995840;28;20381;-76
2023/09/27 11:51:19;;;;;;;22.42;14.80;;;;;;;;;;4995669;28;20458;-76
2023/09/27 11:53:45;;;;;;;22.33;14.75;;;;;;;;;;4995936;28;20034;-76
2023/09/27 11:56:12;;;;;;;23.77;16.35;;;;;;;;;;4994853;28;20034;-76
2023/09/27 11:58:38;;;;;;;23.15;15.82;;;;;;;;;;4995598;28;20425;-76
2023/09/27 12:01:05;;;;;;;21.30;15.15;;;;;;;;;;4996124;28;20042;-76
2023/09/27 12:03:31;;;;;;;23.00;14.15;;;;;;;;;;4996248;28;20054;-76
2023/09/27 12:06:02;;;;;;;22.88;14.25;;;;;;;;;;4995795;28;20499;-76
2023/09/27 12:08:28;;;;;;;21.70;12.90;;;;;;;;;;4995725;28;20402;-76
2023/09/27 12:10:54;;;;;;;21.67;12.95;;;;;;;;;;4995613;28;20032;-76
2023/09/27 12:13:20;;;;;;;18.50;11.75;;;;;;;;;;4996325;28;20023;-76
2023/09/27 12:15:46;;;;;;;19.70;12.40;;;;;;;;;;4996569;28;20050;-76
2023/09/27 12:18:12;;;;;;;15.52;10.50;;;;;;;;;;5001674;28;20236;-76
2023/09/27 12:20:39;;;;;;;17.48;10.73;;;;;;;;;;5001367;28;20037;-76
2023/09/27 12:23:05;;;;;;;16.35;10.85;;;;;;;;;;4999959;28;20085;-76
2023/09/27 12:25:32;;;;;;;13.82;10.85;;;;;;;;;;5002339;28;20054;-76
2023/09/27 12:27:58;;;;;;;13.75;9.70;;;;;;;;;;5015410;28;20030;-76
2023/09/27 12:30:24;;;;;;;17.50;10.40;;;;;;;;;;5015308;28;20034;-76
2023/09/27 12:32:51;;;;;;;15.68;9.77;;;;;;;;;;5014903;28;20026;-76
2023/09/27 12:35:18;;;;;;;13.88;9.48;;;;;;;;;;5000664;28;20030;-76
2023/09/27 12:37:44;;;;;;;12.57;8.45;;;;;;;;;;5019526;28;20057;-76
2023/09/27 12:40:10;;;;;;;12.48;7.68;;;;;;;;;;5019364;28;20026;-76
2023/09/27 12:42:36;;;;;;;12.38;7.43;;;;;;;;;;5014686;28;20092;-76
2023/09/27 12:45:03;;;;;;;12.30;7.50;;;;;;;;;;5013551;28;20022;-76
2023/09/27 12:47:29;;;;;;;10.68;6.57;;;;;;;;;;5014688;28;20049;-76
2023/09/27 12:49:56;;;;;;;8.57;6.35;;;;;;;;;;5013817;28;20485;-76
2023/09/27 12:52:22;;;;;;;11.20;5.82;;;;;;;;;;5014532;28;20022;-76
2023/09/27 12:54:48;;;;;;;9.85;5.45;;;;;;;;;;5014237;28;20105;-76
2023/09/27 12:57:14;;;;;;;7.55;4.30;;;;;;;;;;5014565;28;20026;-76
2023/09/27 12:59:40;;;;;;;7.85;3.72;;;;;;;;;;5014158;28;20368;-76
2023/09/27 13:02:06;;;;;;;8.75;3.97;;;;;;;;;;5014060;28;20026;-76
2023/09/27 13:04:33;;;;;;;8.18;4.18;;;;;;;;;;5014006;28;20053;-76
2023/09/27 13:06:59;;;;;;;6.47;3.95;;;;;;;;;;5014005;28;20109;-76
2023/09/27 13:09:25;;;;;;;7.72;3.85;;;;;;;;;;5014061;28;20034;-76
2023/09/27 13:11:51;;;;;;;7.53;4.20;;;;;;;;;;5013878;28;20029;-77
2023/09/27 13:14:17;;;;;;;6.25;3.90;;;;;;;;;;5014177;28;20033;-77
2023/09/27 13:16:43;;;;;;;6.95;3.50;;;;;;;;;;5013987;28;20117;-76
2023/09/27 13:19:10;;;;;;;7.05;3.95;;;;;;;;;;5013560;28;20101;-77
2023/09/27 13:21:36;;;;;;;8.68;4.28;;;;;;;;;;5014593;28;20036;-77
2023/09/27 13:24:05;;;;;;;9.15;4.82;;;;;;;;;;5014039;28;20464;-77
2023/09/27 13:26:31;;;;;;;7.55;4.88;;;;;;;;;;4992323;28;20077;-76
2023/09/27 13:28:57;;;;;;;7.05;4.68;;;;;;;;;;4994212;28;20026;-76
2023/09/27 13:31:24;;;;;;;9.43;5.05;;;;;;;;;;4993941;28;20095;-77
2023/09/27 13:33:50;;;;;;;9.02;5.55;;;;;;;;;;4994138;28;20030;-77
2023/09/27 13:36:16;;;;;;;9.48;5.72;;;;;;;;;;4993886;28;20022;-76
2023/09/27 13:38:45;;;;;;;10.05;6.22;;;;;;;;;;4993991;28;20030;-76
2023/09/27 13:41:11;;;;;;;10.00;6.50;;;;;;;;;;4994140;28;20369;-76
2023/09/27 13:43:37;;;;;;;10.10;6.82;;;;;;;;;;4994035;28;20030;-76
2023/09/27 13:46:05;;;;;;;12.80;7.38;;;;;;;;;;4993840;28;20026;-76
2023/09/27 13:48:31;;;;;;;10.82;6.47;;;;;;;;;;4993994;28;20028;-77
2023/09/27 13:50:57;;;;;;;9.00;6.05;;;;;;;;;;4993645;28;20034;-77
2023/09/27 13:53:23;;;;;;;7.40;5.78;;;;;;;;;;4994036;28;20468;-77
2023/09/27 13:55:49;;;;;;;9.07;5.53;;;;;;;;;;4993622;28;20022;-76
2023/09/27 13:58:15;;;;;;;8.50;5.80;;;;;;;;;;4993625;28;20089;-76
2023/09/27 14:00:42;;;;;;;6.80;5.43;;;;;;;;;;4993454;28;20034;-76
2023/09/27 14:03:08;;;;;;;7.38;4.53;;;;;;;;;;4993653;28;20088;-77
2023/09/27 14:05:34;;;;;;;6.43;5.10;;;;;;;;;;4993342;28;20030;-76
2023/09/27 14:08:00;;;;;;;9.32;4.88;;;;;;;;;;4992093;28;20050;-76
2023/09/27 14:10:27;;;;;;;7.72;4.25;;;;;;;;;;4993450;28;20026;-76
2023/09/27 14:12:53;;;;;;;5.75;4.05;;;;;;;;;;4993589;28;20076;-76
2023/09/27 14:15:20;;;;;;;6.60;4.55;;;;;;;;;;4993731;28;20019;-76
2023/09/27 14:17:46;;;;;;;6.50;4.95;;;;;;;;;;4993417;28;20033;-76
2023/09/27 14:20:15;;;;;;;8.02;4.78;;;;;;;;;;4992847;28;20026;-76
2023/09/27 14:22:41;;;;;;;7.53;5.03;;;;;;;;;;4993352;28;20039;-76
2023/09/27 14:25:08;;;;;;;6.38;5.63;;;;;;;;;;4994610;28;20137;-76